Fort Davis, TX

1:32 PM CST on February 28, 2015 (GMT -0600)
RAWS FORT DAVIS TX US | Change Station
CLOSE
Current Station
Personal Weather Station
Location: Fort Davis, TX
Elevation: 4764 ft
Nearby Weather Stations
Active Advisory: Winter Weather Advisory Active Notice: Record Report

Elev 4764 ft 30.60 °N, 103.89 °W | Updated 29 minutes ago

Overcast
Overcast
54 °F
Feels Like 54 °F
N
8
Wind Variable Wind from SSW
Gusts 16.0 mph

Today
High -- | Low -- °F
--% Chance of Precip.
Yesterday
High -- | Low -- °F
Precip. -- in
7:23 AM 6:53 PM
Waxing Gibbous, 79% visible
Pressure 30.07 in
Visibility 10.0 miles
Clouds Clear
Dew Point 35 °F
Humidity 48%
Rainfall 0.00 in
Snow Depth Not available.
UV 8 out of 12
Pollen 6.30 out of 12
Air Quality Not available.
Flu Activity Not available.
METAR KMRF 281915Z AUTO 15009KT 10SM CLR 11/01 A3007 RMK AO1

More Conditions Fewer Conditions

Pressure 30.07 in
Visibility 10.0 miles
Clouds Clear
Dew Point 35 °F
Humidity 48%
Rainfall 0.00 in
Snow Depth Not available.
UV 8 out of 12
Pollen 6.30 out of 12
Air Quality Not available.
Flu Activity Not available.
METAR KMRF 281915Z AUTO 15009KT 10SM CLR 11/01 A3007 RMK AO1

More Conditions Fewer Conditions

10-Day Weather Forecast

Almanac

Astronomy

Feb. 28, 2015 Rise Set
Actual Time
Civil Twilight
Nautical Twilight
Astronomical Twilight
Moon
Length of Visible Light
Length of Day
Tomorrow will be .
, % of the Moon is Illuminated

Today's Extremes

State Highs State Lows

Community

WunderPhotos

Upload Photos

1,801,124 photos uploaded!

WunderBlogs® & News

Nearby

Air Quality

  Air Quality AQ Index Pollutant
Not available.

Snow Depth

Station Depth Elevation

Earthquake Activity

City Distance Mag. Time & Date
Minimum magnitude displayed is 2.5.

Coastal Water Temperatures

Place Temperature

Nearby Weather Stations

Winter Weather Advisory
Statement as of 8:37 AM MST on February 28, 2015

... Winter Weather Advisory now in effect until 6 PM CST /5 PM
MST/ this evening...

* event... freezing drizzle and light snow.

* Timing... until 6 PM CST/5 PM MST today.

* Impacts... accumulating snow and ice will result in slick and
hazardous roadways... particularly bridges and overpasses.
Reductions in visibility due to freezing fog is also expected.

* Ice accumulations... less than a tenth of an inch.

Precautionary/preparedness actions...

A Winter Weather Advisory means that periods of light snow and
freezing drizzle will cause travel difficulties. Be prepared for
slippery roads and limited visibilities... and use caution while
driving.